زاخو, العراق

10:06 AM AST on أعس×س 29, 2016 (GMT +0300)
Sirnak | | Change Station

Elev 0 ft 37.36 °N, 42.06 °E | Updated 16 minutes ago

Clear
صافية
99 °F
Feels Like 99 °F
N
5
ريح متغير ريح from شمال

هذا اليوم
High -- | Low -- °F
--% Chance of Precip.
Yesterday
High -- | Low -- °F
Precip. -- في
الضغط 29.89 في
وضوح الرؤية 4.3 أميال
سحابات
نقطة الندى 50 °F
الرطوبة 19%
Rainfall 0.00 في
عمق الثلج Not available.
5:37 AM 6:41 PM
الهلال الأخير, 10% visible
METAR LTCV 290650Z 35004KT 280V030 7000 NSC 37/10 Q1012
الضغط 29.89 في
وضوح الرؤية 4.3 أميال
سحابات
نقطة الندى 50 °F
الرطوبة 19%
Rainfall 0.00 في
عمق الثلج Not available.
5:37 AM 6:41 PM
الهلال الأخير, 10% visible
METAR LTCV 290650Z 35004KT 280V030 7000 NSC 37/10 Q1012

10-Day Weather Forecast

No radar image for this location.
×

Almanac

علم الفلك

Aug. 29, 2016 Rise Set
Actual Time
Civil Twilight
Nautical Twilight
Astronomical Twilight
قمر
Length Of Visible Light
طول الیوم
Tomorrow will be .
, % of the Moon is Illuminated

Today's Extremes

Country Highs Country Lows

Community

WunderPhotos

Upload Photos

1,935,800 photos uploaded!

WunderBlog® & News

Nearby

جودة الهواء

  جودة الهواء AQ Index Pollutant
Not available.

عمق الثلج

Station Depth Elevation

Earthquake Activity

City Distance Mag. Time & Date
Minimum magnitude displayed is 2.5.

Coastal Water Temperatures

مكان درجات الحرارة

Stations

Nearby Weather Stations

Station Location الحرارة رياح باردة نقطة الندى الرطوبة ريح Precip. Elev تحديث Type